Time;durP1;ratioP1;P1;durP2;ratioP2;P2;SDS_P1;SDS_P2;PMS_P1;PMS_P2;Temp;Humidity;BMP_temperature;BMP_pressure;BME280_temperature;BME280_humidity;BME280_pressure;Samples;Min_cycle;Max_cycle;Signal;HPM_P1;HPM_P2
2021/06/04 00:01:24;;;;;;;16.48;13.80;;;18.20;99.90;;;;;;5035079;28;20037;-67
2021/06/04 00:03:51;;;;;;;15.25;13.65;;;18.20;99.90;;;;;;5035091;28;20120;-68
2021/06/04 00:06:18;;;;;;;16.50;14.20;;;18.20;99.90;;;;;;5035300;28;20143;-68
2021/06/04 00:08:48;;;;;;;18.13;15.85;;;18.20;99.90;;;;;;5035122;28;20045;-67
2021/06/04 00:11:38;;;;;;;15.88;14.48;;;18.10;99.90;;;;;;5035357;28;20037;-68
2021/06/04 00:14:08;;;;;;;17.67;15.98;;;18.10;99.90;;;;;;5034670;28;20128;-68
2021/06/04 00:16:41;;;;;;;16.85;15.15;;;18.10;99.90;;;;;;5035153;28;20072;-68
2021/06/04 00:19:13;;;;;;;17.65;15.95;;;18.10;99.90;;;;;;5034389;28;20041;-68
2021/06/04 00:21:43;;;;;;;19.48;17.48;;;18.10;99.90;;;;;;5035003;28;20132;-68
2021/06/04 00:24:10;;;;;;;17.85;15.95;;;18.00;99.90;;;;;;5034682;28;20037;-68
2021/06/04 00:26:38;;;;;;;18.55;16.63;;;18.00;99.90;;;;;;5034672;28;20200;-68
2021/06/04 00:29:05;;;;;;;19.83;17.83;;;18.00;99.90;;;;;;5034277;28;20046;-68
2021/06/04 00:31:31;;;;;;;18.98;17.17;;;18.00;99.90;;;;;;5035033;28;20049;-67
2021/06/04 00:33:57;;;;;;;19.42;17.35;;;17.90;99.90;;;;;;5034830;28;20496;-68
2021/06/04 00:36:24;;;;;;;19.42;17.38;;;17.90;99.90;;;;;;5034435;28;20099;-67
2021/06/04 00:38:52;;;;;;;19.30;17.40;;;17.90;99.90;;;;;;5034060;28;20072;-68
2021/06/04 00:41:31;;;;;;;23.23;20.73;;;17.90;99.90;;;;;;5034374;28;20069;-67
2021/06/04 00:43:58;;;;;;;25.17;22.55;;;17.90;99.90;;;;;;5034178;28;20497;-68
2021/06/04 00:46:25;;;;;;;23.05;20.75;;;17.90;99.90;;;;;;5034629;28;20041;-68
2021/06/04 00:48:53;;;;;;;23.20;20.90;;;17.90;99.90;;;;;;5033350;28;20452;-68
2021/06/04 00:51:29;;;;;;;24.48;22.13;;;17.90;99.90;;;;;;5033418;28;20041;-67
2021/06/04 00:53:55;;;;;;;26.30;23.52;;;17.90;99.90;;;;;;5034309;28;20073;-68
2021/06/04 00:56:25;;;;;;;24.80;22.40;;;17.90;99.90;;;;;;5034400;28;20041;-68
2021/06/04 00:58:53;;;;;;;23.58;21.10;;;17.90;99.90;;;;;;5034248;28;20076;-68
2021/06/04 01:01:24;;;;;;;25.85;23.25;;;17.90;99.90;;;;;;5033721;28;20037;-67
2021/06/04 01:03:58;;;;;;;23.95;21.55;;;17.80;99.90;;;;;;5034026;28;20041;-68
2021/06/04 01:06:45;;;;;;;25.40;22.38;;;17.80;99.90;;;;;;5034125;28;20116;-68
2021/06/04 01:09:32;;;;;;;26.08;23.48;;;17.80;99.90;;;;;;5033741;28;20061;-68
2021/06/04 01:12:35;;;;;;;25.50;22.95;;;17.80;99.90;;;;;;5034152;28;20465;-68
2021/06/04 01:15:48;;;;;;;26.33;23.57;;;17.80;99.90;;;;;;5034112;28;20042;-68
2021/06/04 01:18:25;;;;;;;25.55;22.90;;;17.80;99.90;;;;;;5014206;28;20080;-68
2021/06/04 01:21:10;;;;;;;27.00;24.30;;;17.70;99.90;;;;;;5033639;28;20421;-68
2021/06/04 01:23:57;;;;;;;27.73;20.98;;;17.80;99.90;;;;;;5034115;28;20061;-68
2021/06/04 01:26:35;;;;;;;22.77;20.58;;;17.70;99.90;;;;;;5033638;28;20470;-68
2021/06/04 01:29:25;;;;;;;24.17;21.67;;;17.70;99.90;;;;;;5033045;28;20033;-67
2021/06/04 01:31:56;;;;;;;20.02;18.13;;;17.70;99.90;;;;;;5033297;28;20037;-67
2021/06/04 01:34:26;;;;;;;17.40;15.80;;;17.60;99.90;;;;;;5033436;28;20037;-68
2021/06/04 01:36:55;;;;;;;19.17;15.70;;;17.50;99.90;;;;;;5034050;28;20046;-67
2021/06/04 01:39:36;;;;;;;14.18;12.85;;;17.40;99.90;;;;;;5032997;28;20042;-68
2021/06/04 01:42:05;;;;;;;16.48;14.82;;;17.40;99.90;;;;;;5033591;28;20045;-68
2021/06/04 01:44:53;;;;;;;16.38;14.77;;;17.40;99.90;;;;;;5033905;28;20124;-68
2021/06/04 01:47:34;;;;;;;17.58;15.88;;;17.30;99.90;;;;;;5033270;28;20041;-68
2021/06/04 01:50:07;;;;;;;18.63;16.83;;;17.40;99.90;;;;;;5033004;28;20124;-68
2021/06/04 01:52:37;;;;;;;19.75;17.85;;;17.30;99.90;;;;;;5033252;28;20073;-68
2021/06/04 01:55:22;;;;;;;19.58;17.63;;;17.40;99.90;;;;;;5033368;28;20041;-67
2021/06/04 01:57:56;;;;;;;22.80;20.40;;;17.30;99.90;;;;;;5033745;28;20071;-68
2021/06/04 02:00:29;;;;;;;;;;;17.30;99.90;;;;;;5033218;28;20037;-67
2021/06/04 02:02:57;;;;;;;24.67;22.08;;;17.30;99.90;;;;;;5037614;28;19917;-68
2021/06/04 02:05:28;;;;;;;20.63;18.45;;;17.30;99.90;;;;;;5037643;28;20049;-68
2021/06/04 02:07:54;;;;;;;22.58;20.20;;;17.30;99.90;;;;;;5037387;28;20501;-67
2021/06/04 02:10:33;;;;;;;25.48;21.98;;;17.30;99.90;;;;;;5036951;28;20056;-67
2021/06/04 02:12:59;;;;;;;32.00;23.00;;;17.40;99.90;;;;;;5037168;28;20120;-67
2021/06/04 02:15:29;;;;;;;24.85;22.13;;;17.30;99.90;;;;;;5037306;28;20059;-68
2021/06/04 02:18:13;;;;;;;38.63;24.55;;;17.40;99.90;;;;;;5037460;28;20359;-68
2021/06/04 02:20:48;;;;;;;24.40;21.88;;;17.40;99.90;;;;;;5036412;28;20041;-68
2021/06/04 02:23:24;;;;;;;24.58;21.90;;;17.40;99.90;;;;;;5037020;28;20393;-68
2021/06/04 02:26:10;;;;;;;20.42;18.33;;;17.40;99.90;;;;;;5036819;28;20045;-68
2021/06/04 02:29:18;;;;;;;21.50;19.15;;;17.40;99.90;;;;;;5036973;28;20044;-68
2021/06/04 02:31:50;;;;;;;21.58;19.27;;;17.30;99.90;;;;;;5014766;28;20054;-68
2021/06/04 02:34:30;;;;;;;23.00;18.95;;;17.30;99.90;;;;;;5014927;28;20080;-68
2021/06/04 02:37:03;;;;;;;18.38;16.58;;;17.30;99.90;;;;;;5028578;28;20050;-68
2021/06/04 02:39:42;;;;;;;19.20;17.40;;;17.30;99.90;;;;;;5036592;28;20072;-68
2021/06/04 02:42:16;;;;;;;19.73;17.80;;;17.30;99.90;;;;;;5036701;28;20732;-68
2021/06/04 02:44:53;;;;;;;17.58;16.00;;;17.20;99.90;;;;;;5036396;28;20045;-68
2021/06/04 02:47:23;;;;;;;18.80;16.90;;;17.20;99.90;;;;;;5036397;28;20076;-68
2021/06/04 02:49:49;;;;;;;18.23;16.45;;;17.20;99.90;;;;;;5035927;28;20109;-67
2021/06/04 02:52:30;;;;;;;18.83;16.92;;;17.20;99.90;;;;;;5036079;28;20080;-68
2021/06/04 02:54:57;;;;;;;18.95;17.15;;;17.20;99.90;;;;;;5036751;28;20378;-68
2021/06/04 02:57:26;;;;;;;21.80;19.60;;;17.10;99.90;;;;;;5036128;28;20037;-68
2021/06/04 02:59:52;;;;;;;22.63;20.23;;;17.20;99.90;;;;;;5035532;28;20037;-67
2021/06/04 03:02:23;;;;;;;19.60;17.70;;;17.10;99.90;;;;;;5036269;28;20378;-67
2021/06/04 03:04:53;;;;;;;17.83;16.02;;;17.10;99.90;;;;;;5036380;28;20389;-67
2021/06/04 03:07:32;;;;;;;18.48;16.70;;;17.10;99.90;;;;;;5035978;28;20040;-67
2021/06/04 03:10:00;;;;;;;19.40;17.50;;;17.10;99.90;;;;;;5035470;28;20042;-67
2021/06/04 03:12:32;;;;;;;19.30;17.30;;;17.00;99.90;;;;;;5035001;28;20041;-67
2021/06/04 03:14:59;;;;;;;18.55;16.67;;;17.00;99.90;;;;;;5036052;28;20116;-67
2021/06/04 03:17:29;;;;;;;19.75;17.70;;;17.00;99.90;;;;;;5036123;28;20041;-67
2021/06/04 03:19:55;;;;;;;20.50;18.40;;;17.00;99.90;;;;;;5035265;28;20060;-67
2021/06/04 03:22:35;;;;;;;32.65;21.63;;;17.00;99.90;;;;;;5036184;28;20037;-67
2021/06/04 03:25:08;;;;;;;22.90;20.65;;;16.90;99.90;;;;;;5035560;28;20049;-67
2021/06/04 03:27:34;;;;;;;32.58;22.90;;;16.90;99.90;;;;;;5036111;28;20080;-67
2021/06/04 03:30:00;;;;;;;23.13;20.80;;;16.90;99.90;;;;;;5035209;28;20448;-67
2021/06/04 03:32:26;;;;;;;22.20;19.90;;;16.80;99.90;;;;;;5035782;28;20041;-67
2021/06/04 03:34:52;;;;;;;27.48;22.83;;;16.90;99.90;;;;;;5035492;28;20386;-67
2021/06/04 03:37:20;;;;;;;23.08;20.77;;;16.90;99.90;;;;;;5034114;28;20478;-67
2021/06/04 03:39:47;;;;;;;24.75;22.25;;;16.90;99.90;;;;;;5034977;28;20033;-67
2021/06/04 03:42:27;;;;;;;61.15;26.33;;;16.90;99.90;;;;;;5035579;28;20116;-67
2021/06/04 03:44:53;;;;;;;24.20;20.13;;;16.80;99.90;;;;;;5035341;28;20048;-67
2021/06/04 03:47:19;;;;;;;41.63;22.33;;;16.80;99.90;;;;;;5035733;28;20033;-67
2021/06/04 03:49:46;;;;;;;84.68;26.75;;;16.80;99.90;;;;;;5034789;28;20045;-67
2021/06/04 03:52:14;;;;;;;49.30;25.90;;;16.70;99.90;;;;;;5035157;28;20363;-67
2021/06/04 03:54:46;;;;;;;27.17;24.42;;;16.70;99.90;;;;;;5035104;28;20080;-67
2021/06/04 03:57:14;;;;;;;91.07;30.30;;;16.60;99.90;;;;;;5035549;28;20048;-67
2021/06/04 03:59:43;;;;;;;39.10;26.95;;;16.60;99.90;;;;;;5034701;28;20029;-67
2021/06/04 04:02:13;;;;;;;42.13;26.98;;;16.60;99.90;;;;;;5034796;28;20508;-67
2021/06/04 04:04:42;;;;;;;114.90;34.70;;;16.60;99.90;;;;;;5035022;28;20397;-67
2021/06/04 04:07:09;;;;;;;79.43;31.98;;;16.70;99.90;;;;;;5034869;28;20287;-67
2021/06/04 04:09:34;;;;;;;37.38;26.33;;;16.70;99.90;;;;;;5033198;28;20041;-67
2021/06/04 04:12:00;;;;;;;112.80;34.45;;;16.70;99.90;;;;;;5035117;28;20056;-67
2021/06/04 04:14:27;;;;;;;28.23;25.25;;;16.70;99.90;;;;;;5034426;28;20059;-67
2021/06/04 04:16:53;;;;;;;28.73;25.67;;;16.80;99.90;;;;;;5033304;28;20053;-67
2021/06/04 04:19:20;;;;;;;49.15;29.40;;;16.80;99.90;;;;;;5034208;28;20045;-67
2021/06/04 04:21:48;;;;;;;36.50;26.20;;;16.80;99.90;;;;;;5034826;28;20037;-67
2021/06/04 04:24:19;;;;;;;24.50;22.00;;;16.70;99.90;;;;;;5034440;28;20124;-67
2021/06/04 04:26:45;;;;;;;27.52;24.65;;;16.80;99.90;;;;;;5035077;28;20462;-67
2021/06/04 04:29:12;;;;;;;47.40;28.25;;;16.90;99.90;;;;;;5034088;28;20037;-67
2021/06/04 04:31:42;;;;;;;26.10;23.65;;;16.90;99.90;;;;;;5034257;28;20034;-67
2021/06/04 04:34:08;;;;;;;24.30;22.00;;;16.90;99.90;;;;;;5034545;28;20042;-67
2021/06/04 04:36:43;;;;;;;25.45;22.85;;;16.90;99.90;;;;;;5034191;28;20382;-67
2021/06/04 04:39:13;;;;;;;35.72;24.95;;;17.00;99.90;;;;;;5033939;28;20048;-67
2021/06/04 04:41:39;;;;;;;24.25;21.85;;;17.00;99.90;;;;;;5034548;28;20075;-67
2021/06/04 04:44:06;;;;;;;25.20;22.70;;;17.10;99.90;;;;;;5034043;28;20076;-67
2021/06/04 04:46:32;;;;;;;39.17;27.15;;;17.10;99.90;;;;;;5033975;28;20405;-68
2021/06/04 04:48:58;;;;;;;30.25;23.92;;;17.00;99.90;;;;;;5033902;28;20041;-68
2021/06/04 04:51:26;;;;;;;47.30;26.38;;;17.10;99.90;;;;;;5033959;28;20555;-67
2021/06/04 04:53:52;;;;;;;39.90;25.52;;;17.10;99.90;;;;;;5033795;28;20391;-67
2021/06/04 04:56:19;;;;;;;26.90;24.13;;;17.20;99.90;;;;;;5034318;28;20113;-67
2021/06/04 04:58:47;;;;;;;25.92;23.33;;;17.20;99.90;;;;;;5033960;28;20049;-67
2021/06/04 05:01:13;;;;;;;24.95;22.45;;;17.20;99.90;;;;;;5034232;28;20528;-67
2021/06/04 05:03:39;;;;;;;28.13;25.17;;;17.20;99.90;;;;;;5033968;28;20045;-67
2021/06/04 05:06:06;;;;;;;26.75;24.02;;;17.30;99.90;;;;;;5033735;28;20055;-67
2021/06/04 05:08:32;;;;;;;27.80;25.02;;;17.30;99.90;;;;;;5033400;28;20068;-68
2021/06/04 05:10:59;;;;;;;28.08;25.27;;;17.30;99.90;;;;;;5034099;28;20470;-67
2021/06/04 05:13:25;;;;;;;27.48;24.77;;;17.30;99.90;;;;;;5033467;28;20103;-67
2021/06/04 05:15:50;;;;;;;30.63;27.13;;;17.20;99.90;;;;;;5033510;28;20038;-66
2021/06/04 05:18:17;;;;;;;29.45;26.35;;;17.20;99.90;;;;;;5033567;28;20033;-66
2021/06/04 05:20:46;;;;;;;27.48;24.70;;;17.20;99.90;;;;;;5033188;28;20053;-66
2021/06/04 05:23:13;;;;;;;27.45;24.75;;;17.20;99.90;;;;;;5033788;28;20048;-66
2021/06/04 05:25:41;;;;;;;35.45;27.27;;;17.20;99.90;;;;;;5034002;28;20128;-66
2021/06/04 05:28:10;;;;;;;29.40;26.35;;;17.30;99.90;;;;;;5033773;28;20055;-66
2021/06/04 05:30:39;;;;;;;30.35;27.08;;;17.30;99.90;;;;;;5033153;28;20401;-66
2021/06/04 05:33:07;;;;;;;55.45;30.20;;;17.30;99.90;;;;;;5033746;28;20092;-67
2021/06/04 05:35:33;;;;;;;80.07;35.10;;;17.30;99.90;;;;;;5032849;28;20378;-70
2021/06/04 05:37:59;;;;;;;85.45;37.72;;;17.30;99.90;;;;;;5033314;28;20049;-70
2021/06/04 05:40:31;;;;;;;63.00;37.10;;;17.30;99.90;;;;;;5033007;28;20049;-71
2021/06/04 05:42:58;;;;;;;58.33;35.20;;;17.30;99.90;;;;;;5033464;28;20038;-71
2021/06/04 05:45:26;;;;;;;36.78;31.40;;;17.40;99.90;;;;;;5033764;28;20060;-70
2021/06/04 05:47:53;;;;;;;39.92;33.47;;;17.50;99.90;;;;;;5033268;28;20045;-71
2021/06/04 05:50:23;;;;;;;48.33;36.15;;;17.60;99.90;;;;;;5032951;28;20037;-70
2021/06/04 05:52:49;;;;;;;37.75;32.97;;;17.60;99.90;;;;;;5033352;28;20049;-71
2021/06/04 05:55:18;;;;;;;39.65;33.90;;;17.70;99.90;;;;;;5033637;28;20037;-71
2021/06/04 05:57:44;;;;;;;44.30;33.85;;;17.80;99.90;;;;;;5033514;28;20478;-71
2021/06/04 06:00:19;;;;;;;55.35;38.03;;;17.80;99.90;;;;;;5031613;28;20034;-71
2021/06/04 06:02:45;;;;;;;40.85;32.58;;;17.80;99.90;;;;;;5033087;28;20103;-70
2021/06/04 06:05:12;;;;;;;41.65;32.10;;;17.80;99.90;;;;;;5033634;28;20110;-70
2021/06/04 06:07:37;;;;;;;54.92;40.40;;;17.90;99.90;;;;;;5033361;28;20534;-71
2021/06/04 06:10:05;;;;;;;48.83;37.83;;;17.90;99.90;;;;;;5032775;28;20124;-71
2021/06/04 06:12:31;;;;;;;50.78;36.75;;;17.90;99.90;;;;;;5033130;28;20401;-71
2021/06/04 06:14:57;;;;;;;55.72;39.72;;;17.90;99.90;;;;;;5033523;28;20045;-71
2021/06/04 06:17:22;;;;;;;44.83;36.03;;;18.00;99.90;;;;;;5033563;28;20040;-72
2021/06/04 06:19:49;;;;;;;57.88;42.63;;;18.20;99.90;;;;;;5032514;28;20039;-72
2021/06/04 06:22:15;;;;;;;49.55;37.60;;;18.30;99.90;;;;;;5033101;28;20373;-72
2021/06/04 06:24:41;;;;;;;63.58;43.58;;;18.40;99.90;;;;;;5032891;28;20048;-72
2021/06/04 06:27:07;;;;;;;68.45;45.05;;;18.40;99.90;;;;;;5032986;28;20033;-72
2021/06/04 06:29:36;;;;;;;58.85;43.80;;;18.50;99.90;;;;;;5031268;28;20506;-72
2021/06/04 06:32:05;;;;;;;64.45;46.92;;;18.50;99.90;;;;;;5031609;28;20120;-72
2021/06/04 06:34:31;;;;;;;59.42;43.17;;;18.60;99.90;;;;;;5033417;28;20478;-72
2021/06/04 06:36:57;;;;;;;59.72;42.58;;;18.70;99.90;;;;;;5032806;28;20043;-72
2021/06/04 06:39:28;;;;;;;61.72;43.45;;;18.80;99.90;;;;;;5032644;28;20048;-72
2021/06/04 06:41:55;;;;;;;51.75;39.03;;;18.70;99.90;;;;;;5032970;28;20046;-72
2021/06/04 06:44:21;;;;;;;54.30;40.10;;;18.80;99.90;;;;;;5032710;28;20073;-72
2021/06/04 06:46:47;;;;;;;61.20;44.65;;;18.80;99.90;;;;;;5032773;28;20042;-72
2021/06/04 06:49:14;;;;;;;56.47;42.55;;;19.00;99.90;;;;;;5035376;28;20112;-72
2021/06/04 06:51:39;;;;;;;49.20;39.28;;;19.20;99.90;;;;;;5035992;28;20068;-72
2021/06/04 06:54:08;;;;;;;58.13;41.45;;;19.50;99.90;;;;;;5036543;28;20033;-72
2021/06/04 06:56:35;;;;;;;53.70;39.70;;;20.00;99.90;;;;;;5036241;28;20136;-72
2021/06/04 06:59:02;;;;;;;57.53;43.50;;;20.30;99.90;;;;;;5035710;28;20069;-72
2021/06/04 07:01:28;;;;;;;48.20;37.95;;;20.60;99.90;;;;;;5035847;28;20034;-72
2021/06/04 07:03:55;;;;;;;47.47;36.15;;;20.80;99.90;;;;;;5036261;28;20095;-72
2021/06/04 07:06:26;;;;;;;45.13;37.10;;;21.20;99.90;;;;;;5036201;28;20041;-72
2021/06/04 07:08:52;;;;;;;45.05;34.47;;;21.40;99.90;;;;;;5035616;28;20116;-72
2021/06/04 07:11:22;;;;;;;40.50;34.13;;;21.80;99.90;;;;;;5036449;28;20037;-72
2021/06/04 07:13:49;;;;;;;40.50;30.60;;;22.00;99.90;;;;;;5036298;28;20095;-72
2021/06/04 07:16:17;;;;;;;32.33;27.20;;;22.30;99.20;;;;;;5035687;28;20030;-72
2021/06/04 07:18:43;;;;;;;39.42;30.38;;;22.60;98.30;;;;;;5035407;28;20124;-73
2021/06/04 07:21:10;;;;;;;37.72;29.55;;;22.70;98.00;;;;;;5035683;28;20118;-72
2021/06/04 07:23:37;;;;;;;39.63;30.13;;;22.90;97.50;;;;;;5036034;28;20037;-72
2021/06/04 07:26:16;;;;;;;39.80;29.80;;;22.80;97.00;;;;;;5035644;28;20120;-72
2021/06/04 07:28:43;;;;;;;35.38;27.80;;;22.60;96.90;;;;;;5035137;28;20041;-73
2021/06/04 07:31:12;;;;;;;45.13;32.60;;;22.60;97.50;;;;;;5035385;28;20473;-72
2021/06/04 07:33:42;;;;;;;39.00;30.52;;;22.80;97.40;;;;;;5035670;28;20037;-72
2021/06/04 07:36:17;;;;;;;38.72;29.08;;;23.10;97.80;;;;;;5035530;28;20076;-72
2021/06/04 07:38:43;;;;;;;38.70;28.25;;;23.40;97.40;;;;;;5035175;28;20048;-72
2021/06/04 07:41:12;;;;;;;42.72;29.85;;;23.40;96.20;;;;;;5035476;28;20099;-72
2021/06/04 07:43:40;;;;;;;36.60;27.88;;;23.40;94.90;;;;;;5035378;28;20053;-72
2021/06/04 07:46:08;;;;;;;38.47;27.17;;;23.80;95.00;;;;;;5035543;28;20041;-72
2021/06/04 07:48:35;;;;;;;34.92;26.52;;;24.10;94.90;;;;;;5034784;28;20046;-72
2021/06/04 07:51:09;;;;;;;34.70;26.00;;;24.10;94.90;;;;;;5033886;28;20084;-72
2021/06/04 07:53:36;;;;;;;37.30;28.05;;;24.40;93.80;;;;;;5033998;28;20116;-72
2021/06/04 07:56:10;;;;;;;36.65;26.85;;;24.40;93.00;;;;;;5035044;28;20045;-72
2021/06/04 07:58:36;;;;;;;34.83;27.17;;;24.50;92.40;;;;;;5034683;28;20038;-72
2021/06/04 08:01:08;;;;;;;38.90;29.25;;;24.70;93.40;;;;;;5035115;28;20041;-72
2021/06/04 08:03:38;;;;;;;33.30;26.73;;;24.90;92.90;;;;;;5035357;28;20065;-72
2021/06/04 08:06:05;;;;;;;39.33;29.42;;;25.00;92.90;;;;;;5035419;28;20460;-72
2021/06/04 08:08:32;;;;;;;37.25;29.80;;;25.20;92.40;;;;;;5034403;28;20033;-73
2021/06/04 08:11:01;;;;;;;35.17;29.40;;;25.20;92.20;;;;;;5034793;28;20034;-73
2021/06/04 08:13:27;;;;;;;34.55;27.83;;;25.10;92.50;;;;;;5034562;28;20532;-73
2021/06/04 08:16:00;;;;;;;31.35;26.13;;;25.30;92.30;;;;;;5034795;28;20041;-70
2021/06/04 08:18:30;;;;;;;31.85;26.80;;;25.40;91.40;;;;;;5034876;28;20041;-71
2021/06/04 08:21:05;;;;;;;39.80;29.98;;;25.60;90.80;;;;;;5035050;28;20102;-71
2021/06/04 08:23:37;;;;;;;38.08;30.90;;;25.70;91.10;;;;;;5034913;28;20041;-70
2021/06/04 08:26:05;;;;;;;37.45;29.42;;;25.40;90.50;;;;;;5034803;28;20037;-71
2021/06/04 08:28:35;;;;;;;30.83;26.50;;;25.70;91.70;;;;;;5034210;28;20397;-71
2021/06/04 08:31:02;;;;;;;36.67;28.48;;;25.70;90.70;;;;;;5034905;28;20091;-72
2021/06/04 08:33:33;;;;;;;34.25;28.02;;;25.30;91.10;;;;;;5034156;28;20045;-72
2021/06/04 08:36:00;;;;;;;35.03;27.80;;;24.60;91.50;;;;;;5034160;28;20041;-72
2021/06/04 08:38:32;;;;;;;33.90;29.08;;;24.20;92.70;;;;;;5034456;28;20037;-72
2021/06/04 08:41:13;;;;;;;37.00;30.77;;;23.80;92.60;;;;;;5034254;28;20087;-72
2021/06/04 08:44:05;;;;;;;37.70;30.75;;;23.50;92.40;;;;;;5034745;28;20291;-72
2021/06/04 08:46:39;;;;;;;36.58;30.10;;;23.30;93.30;;;;;;5025698;28;20441;-72
2021/06/04 08:49:47;;;;;;;40.88;30.05;;;23.70;93.70;;;;;;5033946;28;20045;-72
2021/06/04 08:52:39;;;;;;;33.72;26.83;;;24.10;94.20;;;;;;5033848;28;20038;-72
2021/06/04 08:55:32;;;;;;;37.55;28.90;;;24.50;92.80;;;;;;5034522;28;20069;-71
2021/06/04 08:58:23;;;;;;;34.55;29.67;;;24.80;91.80;;;;;;5034095;28;20033;-71
2021/06/04 09:00:59;;;;;;;35.53;28.63;;;25.20;91.40;;;;;;5032847;28;20050;-72
2021/06/04 09:03:34;;;;;;;39.50;29.73;;;25.40;89.60;;;;;;5033963;28;20041;-72
2021/06/04 09:06:04;;;;;;;32.15;26.90;;;25.70;90.40;;;;;;5032458;28;20401;-72
2021/06/04 09:08:33;;;;;;;34.03;28.55;;;25.90;90.30;;;;;;5033281;28;20056;-73
2021/06/04 09:11:25;;;;;;;36.40;28.40;;;26.00;90.30;;;;;;5032922;28;20041;-72
2021/06/04 09:13:51;;;;;;;31.88;28.45;;;26.20;87.30;;;;;;5033721;28;20049;-72
2021/06/04 09:16:23;;;;;;;29.80;25.05;;;26.30;89.10;;;;;;5033787;28;20068;-72
2021/06/04 09:18:58;;;;;;;34.50;28.27;;;26.40;87.00;;;;;;5033389;28;20041;-72
2021/06/04 09:21:31;;;;;;;32.67;26.10;;;26.40;88.00;;;;;;5033615;28;20052;-72
2021/06/04 09:24:01;;;;;;;31.40;26.65;;;26.30;89.00;;;;;;5033592;28;20111;-71
2021/06/04 09:26:28;;;;;;;33.35;26.85;;;26.30;87.30;;;;;;5033567;28;20041;-72
2021/06/04 09:29:05;;;;;;;30.70;26.83;;;26.30;87.10;;;;;;5033372;28;20444;-72
2021/06/04 09:31:56;;;;;;;32.47;25.25;;;26.30;88.30;;;;;;5033239;28;20037;-72
2021/06/04 09:34:26;;;;;;;26.30;23.45;;;26.20;86.90;;;;;;5032694;28;20048;-72
2021/06/04 09:37:04;;;;;;;28.27;22.52;;;26.10;88.70;;;;;;5033671;28;20037;-72
2021/06/04 09:40:07;;;;;;;101.18;34.13;;;26.20;87.70;;;;;;5032055;28;20426;-72
2021/06/04 09:42:34;;;;;;;30.33;23.88;;;26.20;88.50;;;;;;5033484;28;20120;-72
2021/06/04 09:45:06;;;;;;;26.77;22.70;;;26.10;85.70;;;;;;5033497;28;20064;-72
2021/06/04 09:47:39;;;;;;;25.92;21.90;;;26.20;87.60;;;;;;5033919;28;20041;-72
2021/06/04 09:50:14;;;;;;;;;;;26.30;86.30;;;;;;5033542;28;20048;-71
2021/06/04 09:52:40;;;;;;;28.30;21.58;;;26.00;88.10;;;;;;5031815;28;19917;-72
2021/06/04 09:55:19;;;;;;;27.70;23.13;;;25.90;86.40;;;;;;5019157;28;20433;-71
2021/06/04 09:58:07;;;;;;;24.00;21.15;;;26.10;88.00;;;;;;5012152;28;20044;-71
2021/06/04 10:00:45;;;;;;;28.08;22.65;;;26.00;88.30;;;;;;5013469;28;20077;-71
2021/06/04 10:03:22;;;;;;;26.77;21.25;;;25.90;88.30;;;;;;5013512;28;20095;-71
2021/06/04 10:05:53;;;;;;;24.88;20.38;;;26.00;85.60;;;;;;5013323;28;20405;-71
2021/06/04 10:08:29;;;;;;;24.08;20.60;;;26.00;87.60;;;;;;5012212;28;20130;-71
2021/06/04 10:11:18;;;;;;;24.73;19.58;;;26.10;88.60;;;;;;5013436;28;20042;-72
2021/06/04 10:19:42;;;;;;;25.15;18.48;;;25.90;85.50;;;;;;5013214;28;20038;-72
2021/06/04 10:22:22;;;;;;;63.92;25.63;;;25.80;86.00;;;;;;5014676;28;20038;-72
2021/06/04 10:25:12;;;;;;;55.65;21.73;;;25.70;86.00;;;;;;5017525;28;20355;-73
2021/06/04 10:27:40;;;;;;;19.90;15.82;;;25.80;86.90;;;;;;5016517;28;20188;-72
2021/06/04 10:30:21;;;;;;;17.10;15.35;;;26.00;85.10;;;;;;5016372;28;20397;-72
2021/06/04 10:33:25;;;;;;;18.38;16.48;;;26.10;82.60;;;;;;5016675;28;20056;-72
2021/06/04 10:36:00;;;;;;;16.30;14.02;;;26.20;80.60;;;;;;4994913;28;20046;-72
2021/06/04 10:38:53;;;;;;;21.83;17.60;;;26.30;77.90;;;;;;4995045;28;20402;-71
2021/06/04 10:41:29;;;;;;;22.23;16.35;;;26.20;78.90;;;;;;5003810;28;20050;-72
2021/06/04 10:44:07;;;;;;;18.52;15.30;;;26.10;80.50;;;;;;5016804;28;20042;-71
2021/06/04 10:46:52;;;;;;;24.23;17.50;;;26.40;79.80;;;;;;5016349;28;20113;-71
2021/06/04 10:49:49;;;;;;;19.30;16.88;;;26.50;79.00;;;;;;5016324;28;20114;-72
2021/06/04 10:52:29;;;;;;;23.42;18.65;;;26.50;81.10;;;;;;5016699;28;20397;-72
2021/06/04 10:55:11;;;;;;;23.23;18.02;;;26.40;79.30;;;;;;5016574;28;20469;-72
2021/06/04 10:57:48;;;;;;;20.10;15.50;;;26.40;82.90;;;;;;5016466;28;20037;-72
2021/06/04 11:00:22;;;;;;;22.33;15.73;;;26.70;79.40;;;;;;5016110;28;20041;-71
2021/06/04 11:02:54;;;;;;;21.15;17.00;;;26.70;81.40;;;;;;5016719;28;20045;-71
2021/06/04 11:05:44;;;;;;;24.15;18.95;;;26.90;80.50;;;;;;5017130;28;20038;-71
2021/06/04 11:08:47;;;;;;;22.80;17.48;;;26.70;78.40;;;;;;5016298;28;20084;-71
2021/06/04 11:11:16;;;;;;;;;;;26.60;78.80;;;;;;5016400;28;20405;-70
2021/06/04 11:13:59;;;;;;;18.65;14.30;;;26.70;76.20;;;;;;5015620;28;19917;-72
2021/06/04 11:16:56;;;;;;;17.40;15.25;;;26.60;80.30;;;;;;5015659;28;20045;-72
2021/06/04 11:19:25;;;;;;;19.60;16.38;;;26.30;79.90;;;;;;5014576;28;20508;-72
2021/06/04 11:21:55;;;;;;;19.25;15.38;;;26.10;77.60;;;;;;5015374;28;20041;-72
2021/06/04 11:24:39;;;;;;;17.45;13.93;;;26.00;80.30;;;;;;5015940;28;20119;-72
2021/06/04 11:27:06;;;;;;;19.13;13.45;;;25.90;78.90;;;;;;5016232;28;20470;-72
2021/06/04 11:29:38;;;;;;;14.75;13.15;;;25.80;80.60;;;;;;5014285;28;20401;-72
2021/06/04 11:32:17;;;;;;;16.85;14.85;;;25.70;81.10;;;;;;5016303;28;20041;-72
2021/06/04 11:34:48;;;;;;;14.25;12.75;;;25.50;81.70;;;;;;5014836;28;20401;-72
2021/06/04 11:37:33;;;;;;;17.48;14.02;;;25.50;80.00;;;;;;5015934;28;20057;-72
2021/06/04 11:40:07;;;;;;;17.15;13.02;;;25.50;77.00;;;;;;5015401;28;20034;-72
2021/06/04 11:42:51;;;;;;;17.83;14.23;;;25.50;77.50;;;;;;5015544;28;20044;-72
2021/06/04 11:45:19;;;;;;;16.63;12.95;;;25.60;78.40;;;;;;5015568;28;20511;-72
2021/06/04 11:47:45;;;;;;;17.58;13.43;;;25.70;79.30;;;;;;5014684;28;20117;-72
2021/06/04 11:50:41;;;;;;;15.77;13.38;;;25.80;84.00;;;;;;5014033;28;20088;-72
2021/06/04 11:53:32;;;;;;;13.82;11.52;;;25.70;81.80;;;;;;5014801;28;20038;-71
2021/06/04 11:55:59;;;;;;;13.90;11.80;;;25.70;81.60;;;;;;5015533;28;20038;-71
2021/06/04 11:58:28;;;;;;;18.65;13.02;;;25.50;78.00;;;;;;5014564;28;20129;-71
2021/06/04 12:01:14;;;;;;;14.82;12.02;;;25.50;76.60;;;;;;5014975;28;20113;-71
2021/06/04 12:03:51;;;;;;;17.05;13.43;;;25.40;77.50;;;;;;5015988;28;20049;-71
2021/06/04 12:06:23;;;;;;;17.63;14.73;;;25.20;77.90;;;;;;5015281;28;20042;-72
2021/06/04 12:08:50;;;;;;;16.27;13.13;;;25.10;77.90;;;;;;5014874;28;20124;-71
2021/06/04 12:11:18;;;;;;;14.77;11.75;;;25.00;78.50;;;;;;5015654;28;20116;-71
2021/06/04 12:13:48;;;;;;;18.83;13.48;;;25.20;82.10;;;;;;5015028;28;20038;-71
2021/06/04 12:16:31;;;;;;;17.27;12.57;;;24.90;77.60;;;;;;5013845;28;20038;-71
2021/06/04 12:19:27;;;;;;;18.77;14.23;;;25.00;78.50;;;;;;5014567;28;20049;-71
2021/06/04 12:22:06;;;;;;;16.70;11.05;;;25.10;80.10;;;;;;5014956;28;20467;-71
2021/06/04 12:24:33;;;;;;;15.52;12.57;;;25.20;80.40;;;;;;5014713;28;20485;-71
2021/06/04 12:27:28;;;;;;;21.75;13.85;;;25.20;81.40;;;;;;5014717;28;20073;-71
2021/06/04 12:29:54;;;;;;;17.83;11.70;;;25.20;78.80;;;;;;5014226;28;20473;-71
2021/06/04 12:32:49;;;;;;;18.63;13.35;;;25.20;81.30;;;;;;5014644;28;20038;-71
2021/06/04 12:35:51;;;;;;;21.02;15.20;;;25.10;77.60;;;;;;5014472;28;20077;-71
2021/06/04 12:38:34;;;;;;;20.17;12.60;;;25.00;77.40;;;;;;5014974;28;20038;-71
2021/06/04 12:41:06;;;;;;;20.33;14.63;;;25.00;77.30;;;;;;5014631;28;20038;-71
2021/06/04 12:43:35;;;;;;;19.67;14.40;;;25.10;79.90;;;;;;5015006;28;20045;-71
2021/06/04 12:46:03;;;;;;;17.95;12.50;;;25.00;79.10;;;;;;5014616;28;20096;-71
2021/06/04 12:48:38;;;;;;;15.30;12.85;;;25.20;79.20;;;;;;5014599;28;20494;-72
2021/06/04 12:51:17;;;;;;;20.75;14.05;;;25.20;82.70;;;;;;5014203;28;20112;-71
2021/06/04 12:53:48;;;;;;;19.55;13.30;;;25.10;77.90;;;;;;5014918;28;20489;-71
2021/06/04 12:56:25;;;;;;;20.52;14.52;;;25.10;77.60;;;;;;5013261;28;20117;-71
2021/06/04 12:58:58;;;;;;;24.58;19.02;;;25.00;75.90;;;;;;5013970;28;20561;-71
2021/06/04 13:01:26;;;;;;;24.33;19.20;;;25.10;77.50;;;;;;5014081;28;20481;-71
2021/06/04 13:04:16;;;;;;;23.65;16.40;;;25.20;81.20;;;;;;5014739;28;20053;-71